Météo Cheval Rigon

 

Relevés d'aujourd'hui



 

25/6/24
Time         Wind Dir   Wind Spd  Wind Gust   Humidity       Temp   Tot Rain Wind Chill  Dew Point   Barom SL Humidity R Temp Out R Tot Rain R   WindCh R   Dew Pt R SL Barom R Temp Out H Temp Out L  DailyRain   HourRain   24HrRain   RainRate  MonthRain
                          km/hr      km/hr          %         C         mm         C         C         mb       %/hr      C/hr      mm/hr      C/hr      C/hr      mm/hr         C         C         mm         mm         mm      mm/hr         mm
0:00              126          2          3         89       16.1     599.20       16.1       14.2    1013.39        3.5      -1.09      0.000      -1.09      -0.43      0.003       16.1       16.1       0.00       0.00       0.00      0.000      65.80
0:15              126          0          2         90       16.4     599.20       16.4       14.7    1013.28        3.5      -0.55      0.000      -0.55       0.10     -0.093       16.4       16.1       0.00       0.00       0.00      0.000      65.80
0:30              126          0          0         90       16.3     599.20       16.3       14.6    1013.18        2.7      -0.53      0.000      -0.53      -0.03     -0.170       16.4       16.1       0.00       0.00       0.00      0.000      65.80
0:45              126          0          0         91       15.8     599.20       15.8       14.3    1013.08        3.0      -0.86      0.000      -0.86      -0.30     -0.223       16.4       15.8       0.00       0.00       0.00      0.000      65.80
1:00              126          0          0         90       16.0     599.20       16.0       14.4    1012.95        1.5      -0.46      0.000      -0.46      -0.18     -0.295       16.4       15.7       0.00       0.00       0.00      0.000      65.80
1:15              119          0          2         89       15.9     599.20       15.9       14.1    1012.81        0.3      -0.40      0.000      -0.40      -0.32     -0.351       16.4       15.7       0.00       0.00       0.00      0.000      65.80
1:30              119          0          0         89       15.9     599.20       15.9       14.1    1012.88        0.2      -0.30      0.000      -0.30      -0.25     -0.219       16.4       15.7       0.00       0.00       0.00      0.000      65.80
1:45              119          0          0         88       16.1     599.20       16.1       14.1    1012.71       -0.7      -0.05      0.000      -0.05      -0.18     -0.316       16.4       15.7       0.00       0.00       0.00      0.000      65.80
2:00              119          0          0         88       15.9     599.20       15.9       14.0    1012.64       -0.6      -0.18      0.000      -0.18      -0.27     -0.301       16.4       15.7       0.00       0.00       0.00      0.000      65.80
2:15              119          0          2         88       16.1     599.20       16.1       14.1    1012.47       -0.5      -0.04      0.000      -0.04      -0.11     -0.383       16.4       15.7       0.00       0.00       0.00      0.000      65.80
2:30              119          0          0         88       15.9     599.20       15.9       14.0    1012.23       -0.4      -0.13      0.000      -0.13      -0.19     -0.511       16.4       15.7       0.00       0.00       0.00      0.000      65.80
2:45              103          0          3         85       16.9     599.20       16.9       14.4    1012.10       -2.9       0.78      0.000       0.78       0.25     -0.511       16.9       15.7       0.00       0.00       0.00      0.000      65.80
3:00              118          2          3         84       16.9     599.20       16.9       14.2    1011.93       -3.1       0.61      0.000       0.61       0.04     -0.553       16.9       15.7       0.00       0.00       0.00      0.000      65.80
3:15              103          0          3         86       16.1     599.20       16.1       13.7    1011.86       -0.6      -0.34      0.000      -0.34      -0.44     -0.494       16.9       15.7       0.00       0.00       0.00      0.000      65.80
3:30              132          2          2         89       15.6     599.20       15.6       13.8    1011.90        2.0      -0.67      0.000      -0.67      -0.31     -0.355       16.9       15.5       0.00       0.00       0.00      0.000      65.80
3:45              132          0          2         91       14.9     599.20       14.9       13.4    1011.83        3.4      -1.10      0.000      -1.10      -0.49     -0.333       16.9       14.8       0.00       0.00       0.00      0.000      65.80
4:00              132          0          2         91       14.7     599.20       14.7       13.2    1011.86        2.6      -1.06      0.000      -1.06      -0.59     -0.216       16.9       14.7       0.00       0.00       0.00      0.000      65.80
4:15              132          0          0         92       14.7     599.20       14.7       13.4    1011.79        2.8      -0.81      0.000      -0.81      -0.31     -0.213       16.9       14.6       0.00       0.00       0.00      0.000      65.80
4:30              132          0          0         92       14.7     599.20       14.7       13.4    1011.66        2.2      -0.61      0.000      -0.61      -0.22     -0.280       16.9       14.5       0.00       0.00       0.00      0.000      65.80
4:45              132          0          0         92       14.7     599.20       14.7       13.4    1011.62        1.7      -0.50      0.000      -0.50      -0.19     -0.245       16.9       14.5       0.00       0.00       0.00      0.000      65.80
5:00              126          0          2         92       14.6     599.20       14.6       13.3    1011.66        1.4      -0.44      0.000      -0.44      -0.20     -0.160       16.9       14.5       0.00       0.00       0.00      0.000      65.80
5:15              126          0          0         92       14.9     599.20       14.9       13.6    1011.69        1.1      -0.09      0.000      -0.09       0.09     -0.093       16.9       14.5       0.00       0.00       0.00      0.000      65.80
5:30              126          0          0         91       14.7     599.20       14.7       13.2    1011.52       -0.1      -0.28      0.000      -0.28      -0.29     -0.222       16.9       14.5       0.00       0.00       0.00      0.000      65.80
5:45              126          0          0         92       14.6     599.20       14.6       13.3    1011.56        0.7      -0.31      0.000      -0.31      -0.18     -0.137       16.9       14.5       0.00       0.00       0.00      0.000      65.80
6:00              126          0          0         93       14.3     599.20       14.3       13.2    1011.62        1.5      -0.48      0.000      -0.48      -0.22     -0.047       16.9       14.3       0.00       0.00       0.00      0.000      65.80
6:15              126          0          2         93       14.3     599.20       14.3       13.2    1011.62        1.2      -0.39      0.000      -0.39      -0.18     -0.032       16.9       14.3       0.00       0.00       0.00      0.000      65.80
6:30              126          0          2         93       14.0     599.20       14.0       12.9    1011.52        1.0      -0.54      0.000      -0.54      -0.38     -0.120       16.9       14.0       0.00       0.00       0.00      0.000      65.80
6:45              126          0          0         94       14.5     599.20       14.5       13.5    1011.62        1.6       0.02      0.000       0.02       0.28     -0.015       16.9       13.9       0.00       0.00       0.00      0.000      65.80
7:00              126          0          2         93       14.4     599.20       14.4       13.3    1011.73        0.4      -0.04      0.000      -0.04       0.03      0.076       16.9       13.9       0.00       0.00       0.00      0.000      65.80
7:15              126          0          2         93       15.3     599.20       15.3       14.2    1011.76        0.3       0.80      0.000       0.80       0.84      0.091       16.9       13.9       0.00       0.00       0.00      0.000      65.80
7:30              126          0          0         91       16.2     599.20       16.2       14.7    1011.76       -1.5       1.35      0.000       1.35       1.08      0.074       16.9       13.9       0.00       0.00       0.00      0.000      65.80
7:45              126          0          0         90       16.6     599.20       16.6       15.0    1011.79       -2.0       1.44      0.000       1.44       1.09      0.096       16.9       13.9       0.00       0.00       0.00      0.000      65.80
8:00              126          0          0         90       16.9     599.20       16.9       15.3    1011.76       -1.6       1.42      0.000       1.42       1.14      0.048       16.9       13.9       0.00       0.00       0.00      0.000      65.80
8:15              126          0          0         87       17.6     599.20       17.6       15.4    1011.79       -3.8       1.69      0.000       1.69       1.02      0.073       17.6       13.9       0.00       0.00       0.00      0.000      65.80
8:30              126          0          0         90       17.8     599.20       17.8       16.2    1011.66        0.2       1.50      0.000       1.50       1.53     -0.067       17.8       13.9       0.00       0.00       0.00      0.000      65.80
8:45              126          0          0         89       18.1     599.20       18.1       16.3    1011.73       -0.6       1.40      0.000       1.40       1.28      0.002       18.2       13.9       0.00       0.00       0.00      0.000      65.80
9:00              223          0          2         88       18.4     599.20       18.4       16.4    1011.59       -1.4       1.36      0.000       1.36       1.09     -0.121       18.4       13.9       0.00       0.00       0.00      0.000      65.80
9:15              223          0          0         83       19.3     599.20       19.3       16.4    1011.49       -5.7       1.90      0.000       1.90       0.84     -0.184       19.3       13.9       0.00       0.00       0.00      0.000      65.80
9:30              287          0          0         84       19.9     599.20       19.9       17.1    1011.49       -3.4       1.95      0.000       1.95       1.31     -0.145       20.1       13.9       0.00       0.00       0.00      0.000      65.80
9:45              287          0          0         81       20.0     599.20       20.0       16.6    1011.46       -5.2       1.62      0.000       1.62       0.63     -0.151       20.2       13.9       0.00       0.00       0.00      0.000      65.80
10:00             287          0          0         81       20.6     599.20       20.6       17.2    1011.39       -4.0       1.81      0.000       1.81       1.03     -0.168       20.6       13.9       0.00       0.00       0.00      0.000      65.80
10:15             234          0          0         82       21.0     599.20       21.0       17.8    1011.39       -1.8       1.78      0.000       1.78       1.43     -0.129       21.0       13.9       0.00       0.00       0.00      0.000      65.80
10:30             234          0          0         78       21.7     599.20       21.7       17.7    1011.39       -4.8       1.99      0.000       1.99       1.03     -0.100       21.8       13.9       0.00       0.00       0.00      0.000      65.80
10:45             234          0          0         78       21.8     599.20       21.8       17.8    1011.32       -3.6       1.69      0.000       1.69       0.96     -0.135       21.8       13.9       0.00       0.00       0.00      0.000      65.80
11:00             234          0          0         78       22.2     599.20       22.2       18.2    1011.22       -2.8       1.66      0.000       1.66       1.08     -0.195       22.2       13.9       0.00       0.00       0.00      0.000      65.80
11:15             287          0          3         76       22.4     599.20       22.4       18.0    1011.25       -4.2       1.42      0.000       1.42       0.54     -0.129       22.6       13.9       0.00       0.00       0.00      0.000      65.80
11:30             275          0          3         79       22.6     599.20       22.6       18.7    1011.32       -0.5       1.28      0.000       1.28       1.17     -0.032       22.6       13.9       0.00       0.00       0.00      0.000      65.80
11:45              36          2          3         75       22.9     599.20       22.9       18.2    1011.18       -3.8       1.28      0.000       1.28       0.47     -0.147       22.9       13.9       0.00       0.00       0.00      0.000      65.80
12:00             198          0          3         77       23.5     599.20       23.5       19.2    1011.22       -1.1       1.56      0.000       1.56       1.30     -0.086       23.5       13.9       0.00       0.00       0.00      0.000      65.80
12:15             299          0          3         74       23.1     599.20       23.1       18.2    1011.05       -3.2       0.84      0.000       0.84       0.15     -0.224       23.6       13.9       0.00       0.00       0.00      0.000      65.80
12:30              28          0          3         73       23.7     599.20       23.7       18.5    1011.05       -3.3       1.20      0.000       1.20       0.47     -0.179       23.7       13.9       0.00       0.00       0.00      0.000      65.80
12:45              28          0          3         74       24.3     599.20       24.3       19.4    1011.01       -1.4       1.55      0.000       1.55       1.21     -0.175       24.3       13.9       0.00       0.00       0.00      0.000      65.80
13:00              25          2          3         69       24.0     599.20       24.0       18.0    1011.05       -5.4       0.90      0.000       0.90      -0.30     -0.107       24.4       13.9       0.00       0.00       0.00      0.000      65.80

 


 

 

 

Retour accueil